Klein, Montana
Current Conditions -  °F | °C
As of 2:00 AM on Wednesday 28 Jan 2015 (Local Time) from KMVH Reporting Station
Broken Clouds Broken Clouds  
Wind Chill: 52°   Ceiling: 11000
Heat Index: 52°   Visibility: 10mi
Dew Point: 25°   Wind: 18mph
Humidity: 35%   Direction: 310°NW
Pressure: 29.86"   Gusts: 30mph
Location:  46.4961°N, 108.568°W
Report Text: KMVH 280900Z AUTO 31016G26KT 10SM BKN110 11/M04 A2986 RMK A01
Loading
Personal Weather Stations






























Interactive Weather Map New forecast layout! Learn more

10-Day Weather Forecast

Advertisements
Track Severe Weather on mobile